sensor_id;sensor_type;location;lat;lon;timestamp;P1;durP1;ratioP1;P2;durP2;ratioP2
34098;SDS011;20374;49.474;10.944;2023-08-21T00:00:06;8.40;;;7.80;;
34098;SDS011;20374;49.474;10.944;2023-08-21T00:02:33;9.23;;;8.50;;
34098;SDS011;20374;49.474;10.944;2023-08-21T00:04:58;9.18;;;8.48;;
34098;SDS011;20374;49.474;10.944;2023-08-21T00:07:25;9.15;;;8.45;;
34098;SDS011;20374;49.474;10.944;2023-08-21T00:09:50;9.32;;;8.48;;
34098;SDS011;20374;49.474;10.944;2023-08-21T00:12:16;7.83;;;7.13;;
34098;SDS011;20374;49.474;10.944;2023-08-21T00:14:42;9.23;;;8.52;;
34098;SDS011;20374;49.474;10.944;2023-08-21T00:17:08;8.73;;;8.02;;
34098;SDS011;20374;49.474;10.944;2023-08-21T00:19:34;8.77;;;7.88;;
34098;SDS011;20374;49.474;10.944;2023-08-21T00:22:00;8.27;;;7.57;;
34098;SDS011;20374;49.474;10.944;2023-08-21T00:24:26;8.82;;;8.05;;
34098;SDS011;20374;49.474;10.944;2023-08-21T00:26:52;9.88;;;9.10;;
34098;SDS011;20374;49.474;10.944;2023-08-21T00:29:18;8.77;;;8.07;;
34098;SDS011;20374;49.474;10.944;2023-08-21T00:31:44;8.40;;;7.60;;
34098;SDS011;20374;49.474;10.944;2023-08-21T00:34:10;9.60;;;8.85;;
34098;SDS011;20374;49.474;10.944;2023-08-21T00:36:36;8.80;;;8.00;;
34098;SDS011;20374;49.474;10.944;2023-08-21T00:39:02;9.50;;;8.80;;
34098;SDS011;20374;49.474;10.944;2023-08-21T00:41:28;9.05;;;8.27;;
34098;SDS011;20374;49.474;10.944;2023-08-21T00:43:54;9.00;;;8.30;;
34098;SDS011;20374;49.474;10.944;2023-08-21T00:46:20;9.60;;;8.80;;
34098;SDS011;20374;49.474;10.944;2023-08-21T00:48:46;9.80;;;9.00;;
34098;SDS011;20374;49.474;10.944;2023-08-21T00:51:14;9.88;;;9.07;;
34098;SDS011;20374;49.474;10.944;2023-08-21T00:53:41;10.15;;;9.25;;
34098;SDS011;20374;49.474;10.944;2023-08-21T00:56:07;9.95;;;9.25;;
34098;SDS011;20374;49.474;10.944;2023-08-21T00:58:34;10.40;;;9.47;;
34098;SDS011;20374;49.474;10.944;2023-08-21T01:01:00;10.52;;;9.73;;
34098;SDS011;20374;49.474;10.944;2023-08-21T01:03:28;10.00;;;9.13;;
34098;SDS011;20374;49.474;10.944;2023-08-21T01:05:54;10.30;;;9.40;;
34098;SDS011;20374;49.474;10.944;2023-08-21T01:16:46;10.63;;;9.80;;
34098;SDS011;20374;49.474;10.944;2023-08-21T01:19:24;10.52;;;9.73;;
34098;SDS011;20374;49.474;10.944;2023-08-21T01:22:02;10.15;;;9.38;;
34098;SDS011;20374;49.474;10.944;2023-08-21T01:24:28;9.53;;;8.73;;
34098;SDS011;20374;49.474;10.944;2023-08-21T01:26:54;9.63;;;8.82;;
34098;SDS011;20374;49.474;10.944;2023-08-21T01:29:20;11.38;;;10.40;;
34098;SDS011;20374;49.474;10.944;2023-08-21T01:31:47;11.43;;;10.43;;
34098;SDS011;20374;49.474;10.944;2023-08-21T01:34:20;11.65;;;10.65;;
34098;SDS011;20374;49.474;10.944;2023-08-21T01:36:47;11.48;;;10.50;;
34098;SDS011;20374;49.474;10.944;2023-08-21T01:39:13;10.02;;;9.13;;
34098;SDS011;20374;49.474;10.944;2023-08-21T01:41:40;11.20;;;10.35;;
34098;SDS011;20374;49.474;10.944;2023-08-21T01:44:07;10.53;;;9.63;;
34098;SDS011;20374;49.474;10.944;2023-08-21T01:46:33;10.65;;;9.75;;
34098;SDS011;20374;49.474;10.944;2023-08-21T01:48:58;10.75;;;9.85;;
34098;SDS011;20374;49.474;10.944;2023-08-21T01:51:24;10.23;;;9.43;;
34098;SDS011;20374;49.474;10.944;2023-08-21T01:53:50;11.07;;;10.25;;
34098;SDS011;20374;49.474;10.944;2023-08-21T01:56:16;12.52;;;11.63;;
34098;SDS011;20374;49.474;10.944;2023-08-21T01:58:42;11.47;;;10.57;;
34098;SDS011;20374;49.474;10.944;2023-08-21T02:01:08;10.57;;;9.73;;
34098;SDS011;20374;49.474;10.944;2023-08-21T02:03:34;11.40;;;10.50;;
34098;SDS011;20374;49.474;10.944;2023-08-21T02:06:00;9.93;;;9.10;;
34098;SDS011;20374;49.474;10.944;2023-08-21T02:08:35;10.38;;;9.57;;
34098;SDS011;20374;49.474;10.944;2023-08-21T02:11:00;10.32;;;9.48;;
34098;SDS011;20374;49.474;10.944;2023-08-21T02:13:26;10.40;;;9.50;;
34098;SDS011;20374;49.474;10.944;2023-08-21T02:15:52;9.93;;;9.02;;
34098;SDS011;20374;49.474;10.944;2023-08-21T02:18:21;10.43;;;9.40;;
34098;SDS011;20374;49.474;10.944;2023-08-21T02:20:47;9.15;;;8.35;;
34098;SDS011;20374;49.474;10.944;2023-08-21T02:23:14;11.93;;;10.83;;
34098;SDS011;20374;49.474;10.944;2023-08-21T02:25:41;10.20;;;9.27;;
34098;SDS011;20374;49.474;10.944;2023-08-21T02:28:07;10.07;;;9.18;;
34098;SDS011;20374;49.474;10.944;2023-08-21T02:30:33;10.70;;;9.77;;
34098;SDS011;20374;49.474;10.944;2023-08-21T02:32:59;10.93;;;10.03;;
34098;SDS011;20374;49.474;10.944;2023-08-21T02:35:24;11.10;;;10.13;;
34098;SDS011;20374;49.474;10.944;2023-08-21T02:37:50;10.27;;;9.40;;
34098;SDS011;20374;49.474;10.944;2023-08-21T02:40:16;10.53;;;9.63;;
34098;SDS011;20374;49.474;10.944;2023-08-21T02:42:42;10.02;;;8.75;;
34098;SDS011;20374;49.474;10.944;2023-08-21T02:45:09;10.27;;;9.38;;
34098;SDS011;20374;49.474;10.944;2023-08-21T02:47:38;10.65;;;9.65;;
34098;SDS011;20374;49.474;10.944;2023-08-21T02:50:05;10.27;;;9.37;;
34098;SDS011;20374;49.474;10.944;2023-08-21T02:52:32;9.80;;;8.90;;
34098;SDS011;20374;49.474;10.944;2023-08-21T02:55:01;10.88;;;9.95;;
34098;SDS011;20374;49.474;10.944;2023-08-21T02:57:27;9.98;;;9.18;;
34098;SDS011;20374;49.474;10.944;2023-08-21T02:59:54;10.52;;;9.73;;
34098;SDS011;20374;49.474;10.944;2023-08-21T03:02:20;10.30;;;9.40;;
34098;SDS011;20374;49.474;10.944;2023-08-21T03:04:47;9.68;;;8.77;;
34098;SDS011;20374;49.474;10.944;2023-08-21T03:07:13;10.40;;;9.45;;
34098;SDS011;20374;49.474;10.944;2023-08-21T03:09:39;11.10;;;10.00;;
34098;SDS011;20374;49.474;10.944;2023-08-21T03:12:06;10.55;;;9.65;;
34098;SDS011;20374;49.474;10.944;2023-08-21T03:14:33;11.70;;;10.70;;
34098;SDS011;20374;49.474;10.944;2023-08-21T03:17:00;11.15;;;10.05;;
34098;SDS011;20374;49.474;10.944;2023-08-21T03:19:26;10.93;;;10.00;;
34098;SDS011;20374;49.474;10.944;2023-08-21T03:21:52;10.63;;;9.73;;
34098;SDS011;20374;49.474;10.944;2023-08-21T03:24:18;12.30;;;11.20;;
34098;SDS011;20374;49.474;10.944;2023-08-21T03:26:45;10.27;;;9.40;;
34098;SDS011;20374;49.474;10.944;2023-08-21T03:29:10;11.85;;;10.75;;
34098;SDS011;20374;49.474;10.944;2023-08-21T03:31:36;11.15;;;9.38;;
34098;SDS011;20374;49.474;10.944;2023-08-21T03:34:02;10.73;;;9.73;;
34098;SDS011;20374;49.474;10.944;2023-08-21T03:36:28;10.82;;;9.82;;
34098;SDS011;20374;49.474;10.944;2023-08-21T03:38:58;12.63;;;11.48;;
34098;SDS011;20374;49.474;10.944;2023-08-21T03:41:26;11.97;;;10.87;;
34098;SDS011;20374;49.474;10.944;2023-08-21T03:43:52;11.32;;;10.43;;
34098;SDS011;20374;49.474;10.944;2023-08-21T03:46:19;12.43;;;11.20;;
34098;SDS011;20374;49.474;10.944;2023-08-21T03:48:44;11.43;;;10.43;;
34098;SDS011;20374;49.474;10.944;2023-08-21T03:51:11;11.83;;;10.83;;
34098;SDS011;20374;49.474;10.944;2023-08-21T03:53:37;11.77;;;10.73;;
34098;SDS011;20374;49.474;10.944;2023-08-21T03:56:03;12.43;;;11.30;;
34098;SDS011;20374;49.474;10.944;2023-08-21T03:58:28;11.15;;;10.10;;
34098;SDS011;20374;49.474;10.944;2023-08-21T04:00:56;12.63;;;11.57;;
34098;SDS011;20374;49.474;10.944;2023-08-21T04:03:23;10.68;;;9.68;;
34098;SDS011;20374;49.474;10.944;2023-08-21T04:05:49;12.07;;;10.85;;
34098;SDS011;20374;49.474;10.944;2023-08-21T04:08:16;12.68;;;11.45;;
34098;SDS011;20374;49.474;10.944;2023-08-21T04:10:41;13.73;;;12.53;;
34098;SDS011;20374;49.474;10.944;2023-08-21T04:13:07;12.93;;;11.75;;
34098;SDS011;20374;49.474;10.944;2023-08-21T04:15:34;12.75;;;11.60;;
34098;SDS011;20374;49.474;10.944;2023-08-21T04:18:04;13.82;;;11.38;;
34098;SDS011;20374;49.474;10.944;2023-08-21T04:20:30;13.20;;;10.97;;
34098;SDS011;20374;49.474;10.944;2023-08-21T04:22:56;11.82;;;10.38;;
34098;SDS011;20374;49.474;10.944;2023-08-21T04:25:22;12.55;;;11.45;;
34098;SDS011;20374;49.474;10.944;2023-08-21T04:27:48;12.17;;;11.13;;
34098;SDS011;20374;49.474;10.944;2023-08-21T04:30:14;12.20;;;10.98;;
34098;SDS011;20374;49.474;10.944;2023-08-21T04:32:40;12.68;;;11.38;;
34098;SDS011;20374;49.474;10.944;2023-08-21T04:35:07;13.15;;;11.88;;
34098;SDS011;20374;49.474;10.944;2023-08-21T04:37:34;12.50;;;11.32;;
34098;SDS011;20374;49.474;10.944;2023-08-21T04:40:04;13.67;;;12.37;;
34098;SDS011;20374;49.474;10.944;2023-08-21T04:42:31;26.42;;;24.65;;
34098;SDS011;20374;49.474;10.944;2023-08-21T04:44:57;12.13;;;11.05;;
34098;SDS011;20374;49.474;10.944;2023-08-21T04:47:25;13.80;;;12.32;;
34098;SDS011;20374;49.474;10.944;2023-08-21T04:49:55;13.95;;;12.68;;
34098;SDS011;20374;49.474;10.944;2023-08-21T04:52:22;13.57;;;12.27;;
34098;SDS011;20374;49.474;10.944;2023-08-21T04:54:48;13.60;;;12.32;;
34098;SDS011;20374;49.474;10.944;2023-08-21T04:57:15;13.48;;;12.18;;
34098;SDS011;20374;49.474;10.944;2023-08-21T04:59:42;12.65;;;11.45;;
34098;SDS011;20374;49.474;10.944;2023-08-21T05:02:08;11.48;;;10.48;;
34098;SDS011;20374;49.474;10.944;2023-08-21T05:04:37;12.33;;;11.17;;
34098;SDS011;20374;49.474;10.944;2023-08-21T05:07:03;14.13;;;12.65;;
34098;SDS011;20374;49.474;10.944;2023-08-21T05:09:32;11.57;;;10.48;;
34098;SDS011;20374;49.474;10.944;2023-08-21T05:11:58;11.90;;;10.80;;
34098;SDS011;20374;49.474;10.944;2023-08-21T05:14:24;11.82;;;10.02;;
34098;SDS011;20374;49.474;10.944;2023-08-21T05:16:50;13.77;;;12.32;;
34098;SDS011;20374;49.474;10.944;2023-08-21T05:19:17;14.32;;;13.02;;
34098;SDS011;20374;49.474;10.944;2023-08-21T05:21:43;13.67;;;12.37;;
34098;SDS011;20374;49.474;10.944;2023-08-21T05:24:10;11.98;;;10.77;;
34098;SDS011;20374;49.474;10.944;2023-08-21T05:26:41;12.68;;;11.40;;
34098;SDS011;20374;49.474;10.944;2023-08-21T05:29:07;13.30;;;12.10;;
34098;SDS011;20374;49.474;10.944;2023-08-21T05:31:34;12.65;;;11.45;;
34098;SDS011;20374;49.474;10.944;2023-08-21T05:33:59;13.27;;;11.97;;
34098;SDS011;20374;49.474;10.944;2023-08-21T05:36:25;12.82;;;11.60;;
34098;SDS011;20374;49.474;10.944;2023-08-21T05:38:52;13.23;;;11.93;;
34098;SDS011;20374;49.474;10.944;2023-08-21T05:41:18;13.27;;;11.85;;
34098;SDS011;20374;49.474;10.944;2023-08-21T05:43:45;12.60;;;11.33;;
34098;SDS011;20374;49.474;10.944;2023-08-21T05:46:12;13.32;;;12.02;;
34098;SDS011;20374;49.474;10.944;2023-08-21T05:48:38;14.63;;;13.27;;
34098;SDS011;20374;49.474;10.944;2023-08-21T05:51:04;13.73;;;12.43;;
34098;SDS011;20374;49.474;10.944;2023-08-21T05:53:30;13.65;;;11.45;;
34098;SDS011;20374;49.474;10.944;2023-08-21T05:55:56;13.10;;;11.77;;
34098;SDS011;20374;49.474;10.944;2023-08-21T05:58:22;12.65;;;11.55;;
34098;SDS011;20374;49.474;10.944;2023-08-21T06:00:48;14.27;;;12.97;;
34098;SDS011;20374;49.474;10.944;2023-08-21T06:03:15;13.13;;;11.93;;
34098;SDS011;20374;49.474;10.944;2023-08-21T06:06:13;13.80;;;12.70;;
34098;SDS011;20374;49.474;10.944;2023-08-21T06:08:39;15.00;;;13.80;;
34098;SDS011;20374;49.474;10.944;2023-08-21T06:11:05;14.68;;;13.48;;
34098;SDS011;20374;49.474;10.944;2023-08-21T06:13:31;13.60;;;12.50;;
34098;SDS011;20374;49.474;10.944;2023-08-21T06:15:58;15.75;;;14.30;;
34098;SDS011;20374;49.474;10.944;2023-08-21T06:18:25;14.90;;;13.60;;
34098;SDS011;20374;49.474;10.944;2023-08-21T06:20:51;12.27;;;11.30;;
34098;SDS011;20374;49.474;10.944;2023-08-21T06:23:22;15.27;;;13.93;;
34098;SDS011;20374;49.474;10.944;2023-08-21T06:25:48;13.82;;;12.65;;
34098;SDS011;20374;49.474;10.944;2023-08-21T06:28:16;13.15;;;12.05;;
34098;SDS011;20374;49.474;10.944;2023-08-21T06:30:42;15.68;;;14.32;;
34098;SDS011;20374;49.474;10.944;2023-08-21T06:33:08;14.38;;;13.27;;
34098;SDS011;20374;49.474;10.944;2023-08-21T06:35:37;13.63;;;12.40;;
34098;SDS011;20374;49.474;10.944;2023-08-21T06:38:03;13.18;;;12.07;;
34098;SDS011;20374;49.474;10.944;2023-08-21T06:40:30;13.32;;;12.07;;
34098;SDS011;20374;49.474;10.944;2023-08-21T06:42:56;12.05;;;10.95;;
34098;SDS011;20374;49.474;10.944;2023-08-21T06:45:28;13.83;;;12.43;;
34098;SDS011;20374;49.474;10.944;2023-08-21T06:47:57;11.27;;;10.18;;
34098;SDS011;20374;49.474;10.944;2023-08-21T06:50:23;11.88;;;10.82;;
34098;SDS011;20374;49.474;10.944;2023-08-21T06:52:48;12.00;;;10.88;;
34098;SDS011;20374;49.474;10.944;2023-08-21T06:55:14;12.33;;;11.13;;
34098;SDS011;20374;49.474;10.944;2023-08-21T06:57:40;12.63;;;11.52;;
34098;SDS011;20374;49.474;10.944;2023-08-21T07:00:06;11.63;;;10.63;;
34098;SDS011;20374;49.474;10.944;2023-08-21T07:02:33;12.23;;;11.13;;
34098;SDS011;20374;49.474;10.944;2023-08-21T07:04:59;13.10;;;11.88;;
34098;SDS011;20374;49.474;10.944;2023-08-21T07:07:25;12.40;;;11.20;;
34098;SDS011;20374;49.474;10.944;2023-08-21T07:09:50;11.13;;;10.13;;
34098;SDS011;20374;49.474;10.944;2023-08-21T07:12:16;13.10;;;11.85;;
34098;SDS011;20374;49.474;10.944;2023-08-21T07:14:42;13.25;;;12.15;;
34098;SDS011;20374;49.474;10.944;2023-08-21T07:17:08;12.30;;;11.00;;
34098;SDS011;20374;49.474;10.944;2023-08-21T07:19:34;11.85;;;10.75;;
34098;SDS011;20374;49.474;10.944;2023-08-21T07:22:00;12.65;;;11.40;;
34098;SDS011;20374;49.474;10.944;2023-08-21T07:24:26;12.67;;;11.47;;
34098;SDS011;20374;49.474;10.944;2023-08-21T07:26:51;12.15;;;10.95;;
34098;SDS011;20374;49.474;10.944;2023-08-21T07:29:17;11.25;;;10.25;;
34098;SDS011;20374;49.474;10.944;2023-08-21T07:31:43;12.43;;;11.37;;
34098;SDS011;20374;49.474;10.944;2023-08-21T07:34:09;11.02;;;10.13;;
34098;SDS011;20374;49.474;10.944;2023-08-21T07:36:35;11.70;;;10.73;;
34098;SDS011;20374;49.474;10.944;2023-08-21T07:39:01;13.40;;;12.10;;
34098;SDS011;20374;49.474;10.944;2023-08-21T07:41:26;12.57;;;11.60;;
34098;SDS011;20374;49.474;10.944;2023-08-21T07:43:52;12.90;;;11.93;;
34098;SDS011;20374;49.474;10.944;2023-08-21T07:46:18;13.18;;;12.07;;
34098;SDS011;20374;49.474;10.944;2023-08-21T07:48:44;12.40;;;11.40;;
34098;SDS011;20374;49.474;10.944;2023-08-21T07:51:11;12.00;;;11.10;;
34098;SDS011;20374;49.474;10.944;2023-08-21T07:53:37;11.38;;;10.38;;
34098;SDS011;20374;49.474;10.944;2023-08-21T07:56:03;14.18;;;13.07;;
34098;SDS011;20374;49.474;10.944;2023-08-21T07:58:29;13.02;;;12.02;;
34098;SDS011;20374;49.474;10.944;2023-08-21T08:00:56;12.87;;;11.73;;
34098;SDS011;20374;49.474;10.944;2023-08-21T08:03:22;12.80;;;11.80;;
34098;SDS011;20374;49.474;10.944;2023-08-21T08:05:48;13.48;;;12.48;;
34098;SDS011;20374;49.474;10.944;2023-08-21T08:08:16;13.35;;;12.18;;
34098;SDS011;20374;49.474;10.944;2023-08-21T08:10:42;13.77;;;12.43;;
34098;SDS011;20374;49.474;10.944;2023-08-21T08:13:09;14.25;;;13.05;;
34098;SDS011;20374;49.474;10.944;2023-08-21T08:15:35;13.77;;;12.63;;
34098;SDS011;20374;49.474;10.944;2023-08-21T08:18:01;13.63;;;12.35;;
34098;SDS011;20374;49.474;10.944;2023-08-21T08:20:28;13.27;;;12.13;;
34098;SDS011;20374;49.474;10.944;2023-08-21T08:22:54;12.38;;;11.25;;
34098;SDS011;20374;49.474;10.944;2023-08-21T08:25:21;13.73;;;12.63;;
34098;SDS011;20374;49.474;10.944;2023-08-21T08:27:47;14.55;;;13.32;;
34098;SDS011;20374;49.474;10.944;2023-08-21T08:30:14;12.95;;;11.85;;
34098;SDS011;20374;49.474;10.944;2023-08-21T08:32:42;14.80;;;13.70;;
34098;SDS011;20374;49.474;10.944;2023-08-21T08:35:11;13.80;;;12.68;;
34098;SDS011;20374;49.474;10.944;2023-08-21T08:37:38;13.60;;;12.60;;
34098;SDS011;20374;49.474;10.944;2023-08-21T08:40:04;14.80;;;13.70;;
34098;SDS011;20374;49.474;10.944;2023-08-21T08:42:31;12.07;;;11.15;;
34098;SDS011;20374;49.474;10.944;2023-08-21T08:44:57;14.20;;;13.13;;
34098;SDS011;20374;49.474;10.944;2023-08-21T08:47:28;13.70;;;12.70;;
34098;SDS011;20374;49.474;10.944;2023-08-21T08:50:02;13.40;;;12.30;;
34098;SDS011;20374;49.474;10.944;2023-08-21T08:52:30;14.52;;;13.40;;
34098;SDS011;20374;49.474;10.944;2023-08-21T08:55:00;12.57;;;11.50;;
34098;SDS011;20374;49.474;10.944;2023-08-21T08:57:28;14.77;;;13.55;;
34098;SDS011;20374;49.474;10.944;2023-08-21T08:59:54;15.25;;;14.10;;
34098;SDS011;20374;49.474;10.944;2023-08-21T09:02:20;13.52;;;12.32;;
34098;SDS011;20374;49.474;10.944;2023-08-21T09:04:45;13.50;;;12.30;;
34098;SDS011;20374;49.474;10.944;2023-08-21T09:07:12;14.25;;;13.10;;
34098;SDS011;20374;49.474;10.944;2023-08-21T09:09:41;12.90;;;11.82;;
34098;SDS011;20374;49.474;10.944;2023-08-21T09:12:11;14.90;;;13.80;;
34098;SDS011;20374;49.474;10.944;2023-08-21T09:14:39;15.88;;;14.73;;
34098;SDS011;20374;49.474;10.944;2023-08-21T09:17:09;14.10;;;12.90;;
34098;SDS011;20374;49.474;10.944;2023-08-21T09:19:35;15.88;;;14.77;;
34098;SDS011;20374;49.474;10.944;2023-08-21T09:22:17;14.85;;;13.75;;
34098;SDS011;20374;49.474;10.944;2023-08-21T09:27:45;16.20;;;15.00;;
34098;SDS011;20374;49.474;10.944;2023-08-21T09:30:11;17.60;;;16.50;;
34098;SDS011;20374;49.474;10.944;2023-08-21T09:35:20;13.20;;;12.40;;
34098;SDS011;20374;49.474;10.944;2023-08-21T09:37:47;11.20;;;10.40;;
34098;SDS011;20374;49.474;10.944;2023-08-21T09:40:13;11.77;;;10.88;;
34098;SDS011;20374;49.474;10.944;2023-08-21T09:42:41;11.77;;;10.98;;
34098;SDS011;20374;49.474;10.944;2023-08-21T09:45:07;13.90;;;13.03;;
34098;SDS011;20374;49.474;10.944;2023-08-21T09:47:33;13.68;;;12.63;;
34098;SDS011;20374;49.474;10.944;2023-08-21T09:50:00;17.73;;;16.73;;
34098;SDS011;20374;49.474;10.944;2023-08-21T09:52:26;15.15;;;14.32;;
34098;SDS011;20374;49.474;10.944;2023-08-21T09:54:53;20.37;;;19.37;;
34098;SDS011;20374;49.474;10.944;2023-08-21T09:57:19;20.27;;;19.35;;
34098;SDS011;20374;49.474;10.944;2023-08-21T09:59:48;21.35;;;20.25;;
34098;SDS011;20374;49.474;10.944;2023-08-21T10:02:22;23.90;;;22.80;;
34098;SDS011;20374;49.474;10.944;2023-08-21T10:04:50;25.92;;;24.73;;
34098;SDS011;20374;49.474;10.944;2023-08-21T10:07:20;27.57;;;26.37;;
34098;SDS011;20374;49.474;10.944;2023-08-21T10:09:48;29.95;;;28.65;;
34098;SDS011;20374;49.474;10.944;2023-08-21T10:12:15;31.38;;;29.98;;
34098;SDS011;20374;49.474;10.944;2023-08-21T10:14:42;26.75;;;25.55;;
34098;SDS011;20374;49.474;10.944;2023-08-21T10:17:08;27.17;;;25.98;;
34098;SDS011;20374;49.474;10.944;2023-08-21T10:19:35;27.67;;;26.35;;
34098;SDS011;20374;49.474;10.944;2023-08-21T10:22:01;30.38;;;28.98;;
34098;SDS011;20374;49.474;10.944;2023-08-21T10:24:33;20.58;;;19.55;;
34098;SDS011;20374;49.474;10.944;2023-08-21T10:27:00;12.77;;;12.07;;
34098;SDS011;20374;49.474;10.944;2023-08-21T10:29:26;10.07;;;9.23;;
34098;SDS011;20374;49.474;10.944;2023-08-21T10:32:01;12.15;;;11.45;;
34098;SDS011;20374;49.474;10.944;2023-08-21T10:34:36;15.57;;;14.65;;
34098;SDS011;20374;49.474;10.944;2023-08-21T10:37:06;17.27;;;16.27;;
34098;SDS011;20374;49.474;10.944;2023-08-21T10:39:35;18.10;;;17.20;;
34098;SDS011;20374;49.474;10.944;2023-08-21T10:42:09;16.23;;;15.25;;
34098;SDS011;20374;49.474;10.944;2023-08-21T10:47:15;14.77;;;13.98;;
34098;SDS011;20374;49.474;10.944;2023-08-21T10:49:51;14.48;;;13.65;;
34098;SDS011;20374;49.474;10.944;2023-08-21T10:52:26;11.53;;;10.73;;
34098;SDS011;20374;49.474;10.944;2023-08-21T10:54:55;11.55;;;10.65;;
34098;SDS011;20374;49.474;10.944;2023-08-21T10:57:23;10.65;;;9.88;;
34098;SDS011;20374;49.474;10.944;2023-08-21T10:59:53;11.63;;;10.73;;
34098;SDS011;20374;49.474;10.944;2023-08-21T11:02:19;10.85;;;10.15;;
34098;SDS011;20374;49.474;10.944;2023-08-21T11:04:46;10.63;;;9.63;;
34098;SDS011;20374;49.474;10.944;2023-08-21T11:07:11;10.05;;;9.25;;
34098;SDS011;20374;49.474;10.944;2023-08-21T11:09:40;9.65;;;9.05;;
34098;SDS011;20374;49.474;10.944;2023-08-21T11:12:10;9.77;;;9.07;;
34098;SDS011;20374;49.474;10.944;2023-08-21T11:14:37;9.20;;;8.50;;
34098;SDS011;20374;49.474;10.944;2023-08-21T11:17:04;10.23;;;9.52;;
34098;SDS011;20374;49.474;10.944;2023-08-21T11:19:31;10.43;;;9.73;;
34098;SDS011;20374;49.474;10.944;2023-08-21T11:21:59;10.63;;;9.93;;
34098;SDS011;20374;49.474;10.944;2023-08-21T11:27:06;8.53;;;7.90;;
34098;SDS011;20374;49.474;10.944;2023-08-21T11:29:54;10.30;;;9.60;;
34098;SDS011;20374;49.474;10.944;2023-08-21T11:32:23;8.90;;;8.20;;
34098;SDS011;20374;49.474;10.944;2023-08-21T11:37:25;9.38;;;8.50;;
34098;SDS011;20374;49.474;10.944;2023-08-21T11:39:53;9.33;;;8.47;;
34098;SDS011;20374;49.474;10.944;2023-08-21T11:42:20;9.63;;;9.02;;
34098;SDS011;20374;49.474;10.944;2023-08-21T11:44:50;8.77;;;8.07;;
34098;SDS011;20374;49.474;10.944;2023-08-21T11:47:18;9.15;;;8.45;;
34098;SDS011;20374;49.474;10.944;2023-08-21T11:49:46;9.48;;;8.85;;
34098;SDS011;20374;49.474;10.944;2023-08-21T11:52:14;9.70;;;9.10;;
34098;SDS011;20374;49.474;10.944;2023-08-21T11:54:46;9.95;;;9.27;;
34098;SDS011;20374;49.474;10.944;2023-08-21T11:57:17;9.50;;;8.75;;
34098;SDS011;20374;49.474;10.944;2023-08-21T11:59:49;9.95;;;9.27;;
34098;SDS011;20374;49.474;10.944;2023-08-21T12:02:17;10.90;;;10.30;;
34098;SDS011;20374;49.474;10.944;2023-08-21T12:04:51;8.37;;;7.73;;
34098;SDS011;20374;49.474;10.944;2023-08-21T12:07:26;9.05;;;8.45;;
34098;SDS011;20374;49.474;10.944;2023-08-21T12:09:52;10.50;;;9.90;;
34098;SDS011;20374;49.474;10.944;2023-08-21T12:12:18;10.05;;;9.38;;
34098;SDS011;20374;49.474;10.944;2023-08-21T12:14:44;10.88;;;10.18;;
34098;SDS011;20374;49.474;10.944;2023-08-21T12:17:11;11.43;;;10.73;;
34098;SDS011;20374;49.474;10.944;2023-08-21T12:19:37;11.40;;;10.75;;
34098;SDS011;20374;49.474;10.944;2023-08-21T12:22:03;12.30;;;11.27;;
34098;SDS011;20374;49.474;10.944;2023-08-21T12:24:29;11.77;;;10.97;;
34098;SDS011;20374;49.474;10.944;2023-08-21T12:26:55;11.73;;;11.02;;
34098;SDS011;20374;49.474;10.944;2023-08-21T12:29:21;12.50;;;11.63;;
34098;SDS011;20374;49.474;10.944;2023-08-21T12:31:47;12.75;;;12.05;;
34098;SDS011;20374;49.474;10.944;2023-08-21T12:34:13;14.37;;;13.57;;
34098;SDS011;20374;49.474;10.944;2023-08-21T12:36:39;19.00;;;18.00;;
34098;SDS011;20374;49.474;10.944;2023-08-21T12:39:06;18.95;;;18.05;;
34098;SDS011;20374;49.474;10.944;2023-08-21T12:41:32;21.13;;;20.15;;
34098;SDS011;20374;49.474;10.944;2023-08-21T12:43:59;22.80;;;21.67;;
34098;SDS011;20374;49.474;10.944;2023-08-21T12:46:25;21.38;;;20.35;;
34098;SDS011;20374;49.474;10.944;2023-08-21T12:48:53;19.63;;;18.73;;
34098;SDS011;20374;49.474;10.944;2023-08-21T12:51:19;16.63;;;15.82;;
34098;SDS011;20374;49.474;10.944;2023-08-21T12:53:45;11.98;;;11.27;;
34098;SDS011;20374;49.474;10.944;2023-08-21T12:56:11;11.20;;;10.50;;
34098;SDS011;20374;49.474;10.944;2023-08-21T12:58:37;10.05;;;9.43;;
34098;SDS011;20374;49.474;10.944;2023-08-21T13:01:03;9.50;;;8.90;;
34098;SDS011;20374;49.474;10.944;2023-08-21T13:03:30;8.83;;;8.23;;
34098;SDS011;20374;49.474;10.944;2023-08-21T13:05:58;8.02;;;7.53;;
34098;SDS011;20374;49.474;10.944;2023-08-21T13:08:24;9.63;;;8.95;;
34098;SDS011;20374;49.474;10.944;2023-08-21T13:10:50;9.45;;;8.90;;
34098;SDS011;20374;49.474;10.944;2023-08-21T13:13:15;10.73;;;10.13;;
34098;SDS011;20374;49.474;10.944;2023-08-21T13:15:41;12.70;;;12.00;;
34098;SDS011;20374;49.474;10.944;2023-08-21T13:18:10;13.88;;;13.18;;
34098;SDS011;20374;49.474;10.944;2023-08-21T13:20:37;20.23;;;19.23;;
34098;SDS011;20374;49.474;10.944;2023-08-21T13:23:03;20.67;;;19.57;;
34098;SDS011;20374;49.474;10.944;2023-08-21T13:25:28;26.40;;;25.20;;
34098;SDS011;20374;49.474;10.944;2023-08-21T13:27:55;23.08;;;22.08;;
34098;SDS011;20374;49.474;10.944;2023-08-21T13:30:21;24.15;;;23.05;;
34098;SDS011;20374;49.474;10.944;2023-08-21T13:32:47;27.13;;;26.03;;
34098;SDS011;20374;49.474;10.944;2023-08-21T13:35:13;27.88;;;26.67;;
34098;SDS011;20374;49.474;10.944;2023-08-21T13:37:39;22.75;;;21.73;;
34098;SDS011;20374;49.474;10.944;2023-08-21T13:40:06;22.33;;;21.13;;
34098;SDS011;20374;49.474;10.944;2023-08-21T13:42:38;19.98;;;19.08;;
34098;SDS011;20374;49.474;10.944;2023-08-21T13:45:11;22.33;;;21.33;;
34098;SDS011;20374;49.474;10.944;2023-08-21T13:47:39;18.15;;;17.25;;
34098;SDS011;20374;49.474;10.944;2023-08-21T13:50:05;14.80;;;14.05;;
34098;SDS011;20374;49.474;10.944;2023-08-21T13:52:33;11.52;;;10.93;;
34098;SDS011;20374;49.474;10.944;2023-08-21T13:54:59;12.68;;;12.02;;
34098;SDS011;20374;49.474;10.944;2023-08-21T13:57:26;9.77;;;9.17;;
34098;SDS011;20374;49.474;10.944;2023-08-21T13:59:52;10.13;;;9.52;;
34098;SDS011;20374;49.474;10.944;2023-08-21T14:02:18;11.38;;;10.77;;
34098;SDS011;20374;49.474;10.944;2023-08-21T14:04:45;10.00;;;9.43;;
34098;SDS011;20374;49.474;10.944;2023-08-21T14:07:11;8.25;;;7.60;;
34098;SDS011;20374;49.474;10.944;2023-08-21T14:09:38;9.20;;;8.50;;
34098;SDS011;20374;49.474;10.944;2023-08-21T14:12:04;11.68;;;10.98;;
34098;SDS011;20374;49.474;10.944;2023-08-21T14:14:32;9.93;;;9.32;;
34098;SDS011;20374;49.474;10.944;2023-08-21T14:17:02;12.43;;;11.63;;
34098;SDS011;20374;49.474;10.944;2023-08-21T14:19:29;10.98;;;10.27;;
34098;SDS011;20374;49.474;10.944;2023-08-21T14:21:57;12.93;;;11.95;;
34098;SDS011;20374;49.474;10.944;2023-08-21T14:24:24;11.98;;;11.18;;
34098;SDS011;20374;49.474;10.944;2023-08-21T14:26:50;11.95;;;11.15;;
34098;SDS011;20374;49.474;10.944;2023-08-21T14:29:15;10.40;;;9.80;;
34098;SDS011;20374;49.474;10.944;2023-08-21T14:31:41;10.48;;;9.65;;
34098;SDS011;20374;49.474;10.944;2023-08-21T14:34:07;9.40;;;8.80;;
34098;SDS011;20374;49.474;10.944;2023-08-21T14:36:33;9.60;;;9.00;;